Tigerlily Ofcornwall — MMYY4 — position and weather

sailwx.info

Track history (hours):
 
Tides and Currents Weather Stations Pressure Air Temp Water Temp Dewpoint Dewpoint Depression Visibility Wind Speed Wind Dir Waves Ship Positions

Tigerlily Ofcornwall

Last reported at 2017-Sep-29 12:38 UTC. Time now 2017-Dec-14 04:33 UTC.
Position N 39°34' E 002°39'.
Warning: this ship's position is months out of date.

Type: Sailing vessel. MMSI: 25489000.

Date/timePositionNaut miles runAvg speedWind from/ knotsBaromVisibWave heightAir tempDewpointWater temp
2017-Sep-29 12:38N 39°34' E 002°39'0 0.0
2017-Sep-29 12:29N 39°34' E 002°39'0 0.0
2017-Sep-29 11:59N 39°34' E 002°39'2 3.5
2017-Sep-29 11:30N 39°33' E 002°38'1 1.7
2017-Sep-29 11:00N 39°33' E 002°37'0 0.0
2017-Sep-29 10:30N 39°33' E 002°37'0 0.0
2017-Sep-29 10:00N 39°33' E 002°37'0 0.0
2017-Sep-29 09:30N 39°33' E 002°37'0 0.0
2017-Sep-29 09:00N 39°33' E 002°37'0 0.0
2017-Sep-29 08:30N 39°33' E 002°37'0 0.0
2017-Sep-29 08:00N 39°33' E 002°37'0 0.0
2017-Sep-29 07:30N 39°33' E 002°37'61 4.7
2017-Sep-28 18:27N 38°55' E 001°35'4 8.5
2017-Sep-28 18:00N 38°52' E 001°31'5 8.6
2017-Sep-28 17:28N 38°50' E 001°26'4 7.1
2017-Sep-28 16:51N 38°50' E 001°21'3 0.1
2017-Sep-27 08:45N 38°49' E 001°25'2 8.4
2017-Sep-27 08:29N 38°51' E 001°26'4 7.9
2017-Sep-27 08:00N 38°55' E 001°27'0 0.2
2017-Sep-27 07:28N 38°55' E 001°27'0 0.0
2017-Sep-27 06:58N 38°55' E 001°27'0 0.0
2017-Sep-27 06:28N 38°55' E 001°27'0 0.0
2017-Sep-27 05:58N 38°55' E 001°27'0 0.0
2017-Sep-27 05:28N 38°55' E 001°27'0 0.0
2017-Sep-27 04:58N 38°55' E 001°27'0 0.0
2017-Sep-27 04:28N 38°55' E 001°27'0 0.0
2017-Sep-27 03:58N 38°55' E 001°27'0 0.0
2017-Sep-27 03:28N 38°55' E 001°27'0 0.0
2017-Sep-27 02:58N 38°55' E 001°27'0 0.0
2017-Sep-27 02:28N 38°55' E 001°27'0 0.0
2017-Sep-27 01:58N 38°55' E 001°27'0 0.0
2017-Sep-27 01:28N 38°55' E 001°27'0 0.0
2017-Sep-27 00:58N 38°55' E 001°27'0 0.0
2017-Sep-27 00:28N 38°55' E 001°27'0 0.0
2017-Sep-26 23:58N 38°55' E 001°27'0 0.0
2017-Sep-26 23:28N 38°55' E 001°27'0 0.0
2017-Sep-26 22:58N 38°55' E 001°27'0 0.0
2017-Sep-26 22:28N 38°55' E 001°27'0 0.0
2017-Sep-26 21:58N 38°55' E 001°27'0 0.0
2017-Sep-26 21:28N 38°55' E 001°27'0 0.0
2017-Sep-26 20:58N 38°55' E 001°27'0 0.0
2017-Sep-26 20:28N 38°55' E 001°27'0 0.0
2017-Sep-26 19:58N 38°55' E 001°27'0 0.0
2017-Sep-26 19:28N 38°55' E 001°27'0 0.0
2017-Sep-26 18:58N 38°55' E 001°27'0 0.0
2017-Sep-26 18:28N 38°55' E 001°27'0 0.0
2017-Sep-26 17:58N 38°55' E 001°27'0 0.0
2017-Sep-26 17:28N 38°55' E 001°27'0 0.0
2017-Sep-26 16:58N 38°55' E 001°27'0 0.0
2017-Sep-26 16:28N 38°55' E 001°27'0 0.0
2017-Sep-26 15:58N 38°55' E 001°27'0 0.0
2017-Sep-26 15:28N 38°55' E 001°27'0 0.0
2017-Sep-26 14:58N 38°55' E 001°27'0 0.0
2017-Sep-26 14:28N 38°55' E 001°27'0 0.0
2017-Sep-26 13:58N 38°55' E 001°27'0 0.0
2017-Sep-26 13:28N 38°55' E 001°27'0 0.0
2017-Sep-26 12:58N 38°55' E 001°27'0 0.0
2017-Sep-26 12:28N 38°55' E 001°27'0 0.0
2017-Sep-26 11:58N 38°55' E 001°27'0 0.0
2017-Sep-26 11:28N 38°55' E 001°27'0 0.0
2017-Sep-26 10:58N 38°55' E 001°27'0 0.0
2017-Sep-26 10:28N 38°55' E 001°27'0 0.0
2017-Sep-26 09:58N 38°55' E 001°27'0 0.0
2017-Sep-26 09:28N 38°55' E 001°27'0 0.0
2017-Sep-26 08:58N 38°55' E 001°27'0 0.0
2017-Sep-26 08:28N 38°55' E 001°27'0 0.0
2017-Sep-26 07:58N 38°55' E 001°27'2 4.1
2017-Sep-26 07:30N 38°53' E 001°27'13 1.5
2017-Sep-25 22:52N 38°41' E 001°32'4 0.3
2017-Sep-25 11:15N 38°44' E 001°29'2 6.7
2017-Sep-25 10:53N 38°46' E 001°28'3 7.1
2017-Sep-25 10:30N 38°48' E 001°26'5 3.0
2017-Sep-25 08:59N 38°44' E 001°24'0 0.0
2017-Sep-25 08:29N 38°44' E 001°24'0 0.0
2017-Sep-24 23:11N 38°44' E 001°24'0 0.0
2017-Sep-24 22:53N 38°44' E 001°24'0 0.0
2017-Sep-24 22:23N 38°44' E 001°24'0 0.0
2017-Sep-24 21:35N 38°44' E 001°24'0 0.0
2017-Sep-24 21:29N 38°44' E 001°24'0 0.0
2017-Sep-24 17:17N 38°44' E 001°24'0 0.0
2017-Sep-24 16:59N 38°44' E 001°24'0 0.1
2017-Sep-24 16:28N 38°44' E 001°24'3 0.5
2017-Sep-24 11:06N 38°47' E 001°25'3 8.2
2017-Sep-24 10:43N 38°50' E 001°26'2 8.4
2017-Sep-24 10:30N 38°51' E 001°26'4 6.7
2017-Sep-24 09:59N 38°55' E 001°27'0 0.0
2017-Sep-24 09:29N 38°55' E 001°27'0 0.0
2017-Sep-24 08:59N 38°55' E 001°27'0 0.0
2017-Sep-24 08:29N 38°55' E 001°27'0 0.0
2017-Sep-24 07:59N 38°55' E 001°27'0 0.0
2017-Sep-24 07:29N 38°55' E 001°27'0 0.0
2017-Sep-24 06:59N 38°55' E 001°27'0 0.0
2017-Sep-24 06:29N 38°55' E 001°27'0 0.0
2017-Sep-24 05:59N 38°55' E 001°27'0 0.0
2017-Sep-24 05:29N 38°55' E 001°27'0 0.0
2017-Sep-24 04:59N 38°55' E 001°27'0 0.0
2017-Sep-24 04:29N 38°55' E 001°27'0 0.0
2017-Sep-24 03:59N 38°55' E 001°27'0 0.0
2017-Sep-24 03:29N 38°55' E 001°27'0 0.0
2017-Sep-24 02:59N 38°55' E 001°27'0 0.0
2017-Sep-24 02:29N 38°55' E 001°27'0 0.0
2017-Sep-24 01:59N 38°55' E 001°27'0 0.0
2017-Sep-24 01:29N 38°55' E 001°27'0 0.0
2017-Sep-24 00:59N 38°55' E 001°27'0 0.0
2017-Sep-24 00:29N 38°55' E 001°27'0 0.0
2017-Sep-23 23:59N 38°55' E 001°27'0 0.0
2017-Sep-23 23:29N 38°55' E 001°27'0 0.0
2017-Sep-23 22:59N 38°55' E 001°27'0 0.0
2017-Sep-23 22:29N 38°55' E 001°27'0 0.0
2017-Sep-23 21:59N 38°55' E 001°27'0 0.0
2017-Sep-23 21:29N 38°55' E 001°27'0 0.0
2017-Sep-23 20:59N 38°55' E 001°27'0 0.0
2017-Sep-23 20:29N 38°55' E 001°27'0 0.0
2017-Sep-23 19:59N 38°55' E 001°27'0 0.0
2017-Sep-22 01:59N 38°55' E 001°27'0 0.0
2017-Sep-22 01:29N 38°55' E 001°27'0 0.0
2017-Sep-22 00:59N 38°55' E 001°27'0 0.0
2017-Sep-22 00:29N 38°55' E 001°27'0 0.0
2017-Sep-21 23:59N 38°55' E 001°27'0 0.0
2017-Sep-21 23:29N 38°55' E 001°27'0 0.0
2017-Sep-21 22:59N 38°55' E 001°27'0 0.0
2017-Sep-21 22:29N 38°55' E 001°27'0 0.0
2017-Sep-21 21:59N 38°55' E 001°27'0 0.0
2017-Sep-21 21:29N 38°55' E 001°27'0 0.0
2017-Sep-21 20:59N 38°55' E 001°27'0 0.0
2017-Sep-21 20:29N 38°55' E 001°27'0 0.0
2017-Sep-21 19:59N 38°55' E 001°27'0 0.0
2017-Sep-21 19:29N 38°55' E 001°27'0 0.0
2017-Sep-21 18:59N 38°55' E 001°27'0 0.0
2017-Sep-21 18:29N 38°55' E 001°27'0 0.0
2017-Sep-21 17:59N 38°55' E 001°27'0 0.0
2017-Sep-21 17:29N 38°55' E 001°27'0 0.0
2017-Sep-21 16:59N 38°55' E 001°27'0 0.0
2017-Sep-21 16:29N 38°55' E 001°27'0 0.0
2017-Sep-21 15:59N 38°55' E 001°27'0 0.0
2017-Sep-21 15:29N 38°55' E 001°27'0 0.0
2017-Sep-21 14:59N 38°55' E 001°27'1 2.3
2017-Sep-21 14:30N 38°54' E 001°27'4 8.1
2017-Sep-21 14:00N 38°50' E 001°25'1 2.2
2017-Sep-21 13:29N 38°50' E 001°24'0 0.0
2017-Sep-21 12:59N 38°50' E 001°24'0 0.0
2017-Sep-21 12:29N 38°50' E 001°24'0 0.0
2017-Sep-21 11:59N 38°50' E 001°24'0 0.0
2017-Sep-21 11:29N 38°50' E 001°24'0 0.0
2017-Sep-21 10:41N 38°50' E 001°24'0 0.0
2017-Sep-21 10:29N 38°50' E 001°24'0 0.0
2017-Sep-21 09:59N 38°50' E 001°24'0 0.0
2017-Sep-21 09:20N 38°50' E 001°24'0 0.0
2017-Sep-21 08:58N 38°50' E 001°24'  
Track history (hours):
 
Tides and Currents Weather Stations Pressure Air Temp Water Temp Dewpoint Dewpoint Depression Visibility Wind Speed Wind Dir Waves Ship Positions

Tigerlily Ofcornwall

Last reported at 2017-Sep-29 12:38 UTC. Time now 2017-Dec-14 04:33 UTC.
Position N 39°34' E 002°39'.
Warning: this ship's position is months out of date.

Type: Sailing vessel. MMSI: 25489000.

Date/timePositionNaut miles runAvg speedWind from/ knotsBaromVisibWave heightAir tempDewpointWater temp
2017-Sep-29 12:38N 39°34' E 002°39'0 0.0
2017-Sep-29 12:29N 39°34' E 002°39'0 0.0
2017-Sep-29 11:59N 39°34' E 002°39'2 3.5
2017-Sep-29 11:30N 39°33' E 002°38'1 1.7
2017-Sep-29 11:00N 39°33' E 002°37'0 0.0
2017-Sep-29 10:30N 39°33' E 002°37'0 0.0
2017-Sep-29 10:00N 39°33' E 002°37'0 0.0
2017-Sep-29 09:30N 39°33' E 002°37'0 0.0
2017-Sep-29 09:00N 39°33' E 002°37'0 0.0
2017-Sep-29 08:30N 39°33' E 002°37'0 0.0
2017-Sep-29 08:00N 39°33' E 002°37'0 0.0
2017-Sep-29 07:30N 39°33' E 002°37'61 4.7
2017-Sep-28 18:27N 38°55' E 001°35'4 8.5
2017-Sep-28 18:00N 38°52' E 001°31'5 8.6
2017-Sep-28 17:28N 38°50' E 001°26'4 7.1
2017-Sep-28 16:51N 38°50' E 001°21'3 0.1
2017-Sep-27 08:45N 38°49' E 001°25'2 8.4
2017-Sep-27 08:29N 38°51' E 001°26'4 7.9
2017-Sep-27 08:00N 38°55' E 001°27'0 0.2
2017-Sep-27 07:28N 38°55' E 001°27'0 0.0
2017-Sep-27 06:58N 38°55' E 001°27'0 0.0
2017-Sep-27 06:28N 38°55' E 001°27'0 0.0
2017-Sep-27 05:58N 38°55' E 001°27'0 0.0
2017-Sep-27 05:28N 38°55' E 001°27'0 0.0
2017-Sep-27 04:58N 38°55' E 001°27'0 0.0
2017-Sep-27 04:28N 38°55' E 001°27'0 0.0
2017-Sep-27 03:58N 38°55' E 001°27'0 0.0
2017-Sep-27 03:28N 38°55' E 001°27'0 0.0
2017-Sep-27 02:58N 38°55' E 001°27'0 0.0
2017-Sep-27 02:28N 38°55' E 001°27'0 0.0
2017-Sep-27 01:58N 38°55' E 001°27'0 0.0
2017-Sep-27 01:28N 38°55' E 001°27'0 0.0
2017-Sep-27 00:58N 38°55' E 001°27'0 0.0
2017-Sep-27 00:28N 38°55' E 001°27'0 0.0
2017-Sep-26 23:58N 38°55' E 001°27'0 0.0
2017-Sep-26 23:28N 38°55' E 001°27'0 0.0
2017-Sep-26 22:58N 38°55' E 001°27'0 0.0
2017-Sep-26 22:28N 38°55' E 001°27'0 0.0
2017-Sep-26 21:58N 38°55' E 001°27'0 0.0
2017-Sep-26 21:28N 38°55' E 001°27'0 0.0
2017-Sep-26 20:58N 38°55' E 001°27'0 0.0
2017-Sep-26 20:28N 38°55' E 001°27'0 0.0
2017-Sep-26 19:58N 38°55' E 001°27'0 0.0
2017-Sep-26 19:28N 38°55' E 001°27'0 0.0
2017-Sep-26 18:58N 38°55' E 001°27'0 0.0
2017-Sep-26 18:28N 38°55' E 001°27'0 0.0
2017-Sep-26 17:58N 38°55' E 001°27'0 0.0
2017-Sep-26 17:28N 38°55' E 001°27'0 0.0
2017-Sep-26 16:58N 38°55' E 001°27'0 0.0
2017-Sep-26 16:28N 38°55' E 001°27'0 0.0
2017-Sep-26 15:58N 38°55' E 001°27'0 0.0
2017-Sep-26 15:28N 38°55' E 001°27'0 0.0
2017-Sep-26 14:58N 38°55' E 001°27'0 0.0
2017-Sep-26 14:28N 38°55' E 001°27'0 0.0
2017-Sep-26 13:58N 38°55' E 001°27'0 0.0
2017-Sep-26 13:28N 38°55' E 001°27'0 0.0
2017-Sep-26 12:58N 38°55' E 001°27'0 0.0
2017-Sep-26 12:28N 38°55' E 001°27'0 0.0
2017-Sep-26 11:58N 38°55' E 001°27'0 0.0
2017-Sep-26 11:28N 38°55' E 001°27'0 0.0
2017-Sep-26 10:58N 38°55' E 001°27'0 0.0
2017-Sep-26 10:28N 38°55' E 001°27'0 0.0
2017-Sep-26 09:58N 38°55' E 001°27'0 0.0
2017-Sep-26 09:28N 38°55' E 001°27'0 0.0
2017-Sep-26 08:58N 38°55' E 001°27'0 0.0
2017-Sep-26 08:28N 38°55' E 001°27'0 0.0
2017-Sep-26 07:58N 38°55' E 001°27'2 4.1
2017-Sep-26 07:30N 38°53' E 001°27'13 1.5
2017-Sep-25 22:52N 38°41' E 001°32'4 0.3
2017-Sep-25 11:15N 38°44' E 001°29'2 6.7
2017-Sep-25 10:53N 38°46' E 001°28'3 7.1
2017-Sep-25 10:30N 38°48' E 001°26'5 3.0
2017-Sep-25 08:59N 38°44' E 001°24'0 0.0
2017-Sep-25 08:29N 38°44' E 001°24'0 0.0
2017-Sep-24 23:11N 38°44' E 001°24'0 0.0
2017-Sep-24 22:53N 38°44' E 001°24'0 0.0
2017-Sep-24 22:23N 38°44' E 001°24'0 0.0
2017-Sep-24 21:35N 38°44' E 001°24'0 0.0
2017-Sep-24 21:29N 38°44' E 001°24'0 0.0
2017-Sep-24 17:17N 38°44' E 001°24'0 0.0
2017-Sep-24 16:59N 38°44' E 001°24'0 0.1
2017-Sep-24 16:28N 38°44' E 001°24'3 0.5
2017-Sep-24 11:06N 38°47' E 001°25'3 8.2
2017-Sep-24 10:43N 38°50' E 001°26'2 8.4
2017-Sep-24 10:30N 38°51' E 001°26'4 6.7
2017-Sep-24 09:59N 38°55' E 001°27'0 0.0
2017-Sep-24 09:29N 38°55' E 001°27'0 0.0
2017-Sep-24 08:59N 38°55' E 001°27'0 0.0
2017-Sep-24 08:29N 38°55' E 001°27'0 0.0
2017-Sep-24 07:59N 38°55' E 001°27'0 0.0
2017-Sep-24 07:29N 38°55' E 001°27'0 0.0
2017-Sep-24 06:59N 38°55' E 001°27'0 0.0
2017-Sep-24 06:29N 38°55' E 001°27'0 0.0
2017-Sep-24 05:59N 38°55' E 001°27'0 0.0
2017-Sep-24 05:29N 38°55' E 001°27'0 0.0
2017-Sep-24 04:59N 38°55' E 001°27'0 0.0
2017-Sep-24 04:29N 38°55' E 001°27'0 0.0
2017-Sep-24 03:59N 38°55' E 001°27'0 0.0
2017-Sep-24 03:29N 38°55' E 001°27'0 0.0
2017-Sep-24 02:59N 38°55' E 001°27'0 0.0
2017-Sep-24 02:29N 38°55' E 001°27'0 0.0
2017-Sep-24 01:59N 38°55' E 001°27'0 0.0
2017-Sep-24 01:29N 38°55' E 001°27'0 0.0
2017-Sep-24 00:59N 38°55' E 001°27'0 0.0
2017-Sep-24 00:29N 38°55' E 001°27'0 0.0
2017-Sep-23 23:59N 38°55' E 001°27'0 0.0
2017-Sep-23 23:29N 38°55' E 001°27'0 0.0
2017-Sep-23 22:59N 38°55' E 001°27'0 0.0
2017-Sep-23 22:29N 38°55' E 001°27'0 0.0
2017-Sep-23 21:59N 38°55' E 001°27'0 0.0
2017-Sep-23 21:29N 38°55' E 001°27'0 0.0
2017-Sep-23 20:59N 38°55' E 001°27'0 0.0
2017-Sep-23 20:29N 38°55' E 001°27'0 0.0
2017-Sep-23 19:59N 38°55' E 001°27'0 0.0
2017-Sep-22 01:59N 38°55' E 001°27'0 0.0
2017-Sep-22 01:29N 38°55' E 001°27'0 0.0
2017-Sep-22 00:59N 38°55' E 001°27'0 0.0
2017-Sep-22 00:29N 38°55' E 001°27'0 0.0
2017-Sep-21 23:59N 38°55' E 001°27'0 0.0
2017-Sep-21 23:29N 38°55' E 001°27'0 0.0
2017-Sep-21 22:59N 38°55' E 001°27'0 0.0
2017-Sep-21 22:29N 38°55' E 001°27'0 0.0
2017-Sep-21 21:59N 38°55' E 001°27'0 0.0
2017-Sep-21 21:29N 38°55' E 001°27'0 0.0
2017-Sep-21 20:59N 38°55' E 001°27'0 0.0
2017-Sep-21 20:29N 38°55' E 001°27'0 0.0
2017-Sep-21 19:59N 38°55' E 001°27'0 0.0
2017-Sep-21 19:29N 38°55' E 001°27'0 0.0
2017-Sep-21 18:59N 38°55' E 001°27'0 0.0
2017-Sep-21 18:29N 38°55' E 001°27'0 0.0
2017-Sep-21 17:59N 38°55' E 001°27'0 0.0
2017-Sep-21 17:29N 38°55' E 001°27'0 0.0
2017-Sep-21 16:59N 38°55' E 001°27'0 0.0
2017-Sep-21 16:29N 38°55' E 001°27'0 0.0
2017-Sep-21 15:59N 38°55' E 001°27'0 0.0
2017-Sep-21 15:29N 38°55' E 001°27'0 0.0
2017-Sep-21 14:59N 38°55' E 001°27'1 2.3
2017-Sep-21 14:30N 38°54' E 001°27'4 8.1
2017-Sep-21 14:00N 38°50' E 001°25'1 2.2
2017-Sep-21 13:29N 38°50' E 001°24'0 0.0
2017-Sep-21 12:59N 38°50' E 001°24'0 0.0
2017-Sep-21 12:29N 38°50' E 001°24'0 0.0
2017-Sep-21 11:59N 38°50' E 001°24'0 0.0
2017-Sep-21 11:29N 38°50' E 001°24'0 0.0
2017-Sep-21 10:41N 38°50' E 001°24'0 0.0
2017-Sep-21 10:29N 38°50' E 001°24'0 0.0
2017-Sep-21 09:59N 38°50' E 001°24'0 0.0
2017-Sep-21 09:20N 38°50' E 001°24'0 0.0
2017-Sep-21 08:58N 38°50' E 001°24'  

Dump ship's entire track history